Latest Coastal Weather Observations for Evans Head

IDN60701

Issued at 4:15 am EDT Monday 24 November 2014 (issued every 10 minutes, with the page automatically refreshed every 10 minutes)

About coastal observations | Map of coastal stations | Coastal observations for NSW | Marine services | Other Formats
Station Details ID: 058212 Name: EVANS HEAD RAAF BOMBING RANGE AWS Lat: -29.18 Lon: 153.40 Height: 62.5 m
Data from the previous 72 hours. | See also: Recent months at Evans Head
Date/Time
EDT
Temp

°C
Wind Pressure Rain
since 9am
mm
Weather Cloud Vis
km
Sea
Height
m
Swell
Dir
 
Speed
knots
Gust
knots
hPa Trend Height
m
Period
s
Dir
24/04:00am 21.2 NNE 8 10 1014.4 - 0.0 - - - - - - -
24/03:30am 21.2 N 7 11 1014.3 - 0.0 - - - - - - -
24/03:00am 21.4 N 8 13 1013.8 - 0.0 - - - - - - -
24/02:30am 21.6 NNE 11 16 1013.9 - 0.0 - - - - - - -
24/02:00am 21.8 NNE 9 13 1014.0 - 0.0 - - - - - - -
24/01:30am 22.1 NNE 9 14 1014.1 - 0.0 - - - - - - -
24/01:00am 22.3 N 10 15 1014.6 - 0.0 - - - - - - -
24/12:30am 22.3 N 10 15 1014.6 - 0.0 - - - - - - -
24/12:00am 22.2 N 11 17 1014.9 - 0.0 - - - - - - -
 
Date/Time
EDT
Temp

°C
Wind Pressure Rain
since 9am
mm
Weather Cloud Vis
km
Sea
Height
m
Swell
Dir
 
Speed
knots
Gust
knots
hPa Trend Height
m
Period
s
Dir
23/11:30pm 22.2 N 8 15 1015.0 - 0.0 - - - - - - -
23/11:00pm 22.2 N 7 10 1014.7 - 0.0 - - - - - - -
23/10:30pm 22.5 N 11 15 1014.2 - 0.0 - - - - - - -
23/10:00pm 22.3 N 11 16 1014.1 - 0.0 - - - - - - -
23/09:30pm 22.2 NNE 7 9 1014.6 - 0.0 - - - - - - -
23/09:00pm 22.7 NNE 5 7 1014.6 - 0.0 - - - - - - -
23/08:30pm 23.0 N 8 13 1014.1 - 0.0 - - - - - - -
23/08:00pm 23.2 N 11 15 1013.6 - 0.0 - - - - - - -
23/07:30pm 23.5 N 11 15 1013.0 - 0.0 - - - - - - -
23/07:00pm 24.0 N 8 11 1012.3 - 0.0 - - - - - - -
23/06:30pm 24.0 N 10 15 1011.8 - 0.0 - - - - - - -
23/06:00pm 24.3 N 11 16 1011.3 - 0.0 - - - - - - -
23/05:30pm 24.8 N 13 19 1011.2 - 0.0 - - - - - - -
23/05:00pm 25.4 NNE 13 18 1011.4 - 0.0 - - - - - - -
23/04:30pm 25.8 NNE 10 15 1011.9 - 0.0 - - - - - - -
23/04:00pm 25.9 NNE 13 21 1011.8 - 0.0 - - - - - - -
23/03:30pm 26.3 NNE 14 21 1011.8 - 0.0 - - - - - - -
23/03:00pm 27.4 NNE 13 20 1012.2 - 0.0 - - - - - - -
23/02:30pm 29.2 NNE 10 14 1012.2 - 0.0 - - - - - - -
23/02:00pm 31.9 NNE 14 22 1012.5 - 0.0 - - - - - - -
23/01:34pm 32.5 NNE 15 25 1012.7 - 0.0 - - - - - - -
23/01:30pm 32.7 NNE 13 21 1012.8 - 0.0 - - - - - - -
23/01:00pm 31.5 NNE 15 21 1013.3 - 0.0 - - - - - - -
23/12:30pm 31.6 NNE 10 19 1014.1 - 0.0 - - - - - - -
23/12:00pm 31.6 NNE 10 19 1014.6 - 0.0 - - - - - - -
23/11:30am 32.0 N 10 15 1014.8 - 0.0 - - - - - - -
23/11:00am 32.0 N 10 16 1015.0 - 0.0 - - - - - - -
23/10:30am 31.2 NNE 9 15 1015.5 - 0.0 - - - - - - -
23/10:00am 30.7 N 8 13 1015.7 - 0.0 - - - - - - -
23/09:30am 29.7 N 8 14 1015.8 - 0.0 - - - - - - -
23/09:00am 29.2 N 6 12 1015.9 - 0.0 - - - - - - -
23/08:30am 27.2 NNE 8 13 1015.6 - 0.0 - - - - - - -
23/08:00am 26.0 N 7 11 1015.6 - 0.0 - - - - - - -
23/07:30am 24.0 N 9 14 1015.4 - 0.0 - - - - - - -
23/07:00am 22.3 NNE 5 7 1015.4 - 0.0 - - - - - - -
23/06:30am 21.7 N 6 8 1015.3 - 0.0 - - - - - - -
23/06:00am 21.3 N 7 9 1015.0 - 0.0 - - - - - - -
23/05:30am 21.1 N 7 9 1014.3 - 0.0 - - - - - - -
23/05:00am 21.1 N 6 7 1014.0 - 0.0 - - - - - - -
23/04:30am 21.0 N 7 9 1013.5 - 0.0 - - - - - - -
23/04:00am 21.2 N 7 8 1013.3 - 0.0 - - - - - - -
23/03:30am 21.4 N 6 8 1013.3 - 0.0 - - - - - - -
23/03:00am 21.4 NNE 7 8 1013.3 - 0.0 - - - - - - -
23/02:30am 21.5 N 5 7 1013.6 - 0.0 - - - - - - -
23/02:00am 21.8 NNE 5 6 1013.7 - 0.0 - - - - - - -
23/01:30am 22.0 CALM 0 0 1014.0 - 0.0 - - - - - - -
23/01:00am 21.7 CALM 0 0 1014.0 - 0.0 - - - - - - -
23/12:30am 21.9 SW 1 3 1014.4 - 0.0 - - - - - - -
23/12:00am 22.0 SSW 3 4 1014.4 - 0.0 - - - - - - -
 
Date/Time
EDT
Temp

°C
Wind Pressure Rain
since 9am
mm
Weather Cloud Vis
km
Sea
Height
m
Swell
Dir
 
Speed
knots
Gust
knots
hPa Trend Height
m
Period
s
Dir
22/11:30pm 21.9 S 3 4 1014.4 - 0.0 - - - - - - -
22/11:00pm 22.2 SSW 4 6 1014.2 - 0.0 - - - - - - -
22/10:30pm 22.4 WSW 4 5 1014.1 - 0.0 - - - - - - -
22/10:00pm 22.5 W 3 5 1013.7 - 0.0 - - - - - - -
22/09:30pm 22.5 NNW 4 7 1013.4 - 0.0 - - - - - - -
22/09:00pm 22.5 N 5 8 1013.0 - 0.0 - - - - - - -
22/08:30pm 22.8 N 7 10 1012.6 - 0.0 - - - - - - -
22/08:00pm 23.0 N 5 8 1012.1 - 0.0 - - - - - - -
22/07:30pm 23.7 N 6 8 1011.6 - 0.0 - - - - - - -
22/07:00pm 24.9 N 9 13 1011.1 - 0.0 - - - - - - -
22/06:30pm 25.9 N 9 16 1010.7 - 0.0 - - - - - - -
22/06:00pm 25.4 N 7 13 1010.4 - 0.0 - - - - - - -
22/05:30pm 25.4 N 8 12 1010.2 - 0.0 - - - - - - -
22/05:00pm 26.2 N 6 9 1010.2 - 0.0 - - - - - - -
22/04:30pm 27.1 N 7 10 1010.3 - 0.0 - - - - - - -
22/04:00pm 28.0 NNE 5 7 1010.5 - 0.0 - - - - - - -
22/03:30pm 29.7 ENE 3 8 1010.7 - 0.0 - - - - - - -
22/03:00pm 28.3 S 4 6 1011.1 - 0.0 - - - - - - -
22/02:30pm 26.0 SSE 8 11 1011.7 - 0.0 - - - - - - -
22/02:00pm 26.0 SSE 12 17 1012.1 - 0.0 - - - - - - -
22/01:30pm 26.8 SSE 12 16 1012.6 - 0.0 - - - - - - -
22/01:00pm 26.7 SSE 14 21 1012.9 - 0.0 - - - - - - -
22/12:30pm 26.4 S 15 20 1013.1 - 0.0 - - - - - - -
22/12:00pm 26.2 S 14 20 1013.3 - 0.0 - - - - - - -
22/11:30am 27.5 S 16 23 1013.0 - 0.0 - - - - - - -
22/11:21am 28.6 S 13 19 1012.9 - 0.0 - - - - - - -
22/11:00am 34.5 NNW 6 10 1012.6 - 0.0 - - - - - - -
22/10:30am 33.9 N 8 13 1012.8 - 0.0 - - - - - - -
22/10:00am 33.0 NNW 8 14 1012.9 - 0.0 - - - - - - -
22/09:30am 30.9 N 7 9 1012.9 - 0.0 - - - - - - -
22/09:00am 29.0 NNE 6 9 1012.9 - 0.0 - - - - - - -
22/08:30am 28.2 N 6 9 1012.8 - 0.0 - - - - - - -
22/08:00am 25.5 NNE 5 8 1012.8 - 0.0 - - - - - - -
22/07:30am 23.9 N 9 12 1012.3 - 0.0 - - - - - - -
22/07:00am 23.3 NNE 4 6 1012.4 - 0.0 - - - - - - -
22/06:30am 22.6 N 9 14 1011.6 - 0.0 - - - - - - -
22/06:00am 22.4 N 9 13 1011.1 - 0.0 - - - - - - -
22/05:30am 22.6 N 11 15 1010.7 - 0.0 - - - - - - -
22/05:00am 22.2 N 10 14 1010.5 - 0.0 - - - - - - -
22/04:30am 21.8 N 8 12 1010.1 - 0.0 - - - - - - -
22/04:00am 21.7 N 8 13 1009.8 - 0.0 - - - - - - -
22/03:30am 21.8 N 9 14 1009.5 - 0.0 - - - - - - -
22/03:00am 22.0 N 9 12 1009.5 - 0.0 - - - - - - -
22/02:30am 22.2 N 8 11 1009.5 - 0.0 - - - - - - -
22/02:00am 22.4 N 7 11 1009.4 - 0.0 - - - - - - -
22/01:30am 22.5 N 5 9 1009.7 - 0.0 - - - - - - -
22/01:00am 22.5 N 6 9 1009.8 - 0.0 - - - - - - -
22/12:30am 22.9 NNE 5 7 1010.2 - 0.0 - - - - - - -
22/12:00am 23.4 N 6 10 1010.6 - 0.0 - - - - - - -
 
Date/Time
EDT
Temp

°C
Wind Pressure Rain
since 9am
mm
Weather Cloud Vis
km
Sea
Height
m
Swell
Dir
 
Speed
knots
Gust
knots
hPa Trend Height
m
Period
s
Dir
21/11:30pm 23.8 NNE 6 9 1010.7 - 0.0 - - - - - - -
21/11:00pm 23.9 N 6 8 1010.6 - 0.0 - - - - - - -
21/10:30pm 24.0 N 7 12 1010.2 - 0.0 - - - - - - -
21/10:00pm 23.6 N 9 14 1009.7 - 0.0 - - - - - - -
21/09:30pm 23.7 N 10 17 1009.5 - 0.0 - - - - - - -
21/09:00pm 23.8 N 13 19 1009.3 - 0.0 - - - - - - -
21/08:30pm 23.7 N 11 17 1009.2 - 0.0 - - - - - - -
21/08:00pm 24.0 N 11 18 1009.0 - 0.0 - - - - - - -
21/07:30pm 24.0 N 13 19 1008.8 - 0.0 - - - - - - -
21/07:00pm 24.5 N 16 24 1008.4 - 0.0 - - - - - - -
21/06:50pm 24.7 N 15 27 1008.3 - 0.0 - - - - - - -
21/06:30pm 25.1 N 16 24 1008.3 - 0.0 - - - - - - -
21/06:00pm 26.6 N 15 25 1007.8 - 0.0 - - - - - - -
21/05:54pm 27.0 N 15 25 1007.9 - 0.0 - - - - - - -
21/05:30pm 26.3 N 16 25 1007.6 - 0.0 - - - - - - -
21/05:00pm 27.5 N 16 24 1007.6 - 0.0 - - - - - - -
21/04:30pm 28.4 N 16 26 1007.9 - 0.0 - - - - - - -
21/04:00pm 29.2 N 16 27 1007.9 - 0.0 - - - - - - -
21/03:49pm 29.7 N 15 27 1008.1 - 0.0 - - - - - - -
21/03:30pm 30.2 N 15 21 1008.4 - 0.0 - - - - - - -
21/03:04pm 29.6 N 17 27 1008.5 - 0.0 - - - - - - -
21/03:00pm 30.9 N 17 26 1008.5 - 0.0 - - - - - - -
21/02:35pm 30.8 N 15 27 1009.1 - 0.0 - - - - - - -
21/02:30pm 31.5 N 14 23 1009.3 - 0.0 - - - - - - -
21/02:14pm 30.9 NNE 15 25 1009.6 - 0.0 - - - - - - -
21/02:00pm 30.6 NNE 16 24 1009.9 - 0.0 - - - - - - -
21/01:30pm 30.3 NNE 12 19 1010.5 - 0.0 - - - - - - -
21/01:00pm 32.1 N 12 19 1010.8 - 0.0 - - - - - - -
21/12:30pm 31.2 NNE 13 21 1011.3 - 0.0 - - - - - - -
21/12:00pm 32.5 NNE 10 16 1011.9 - 0.0 - - - - - - -
21/11:30am 30.7 NNE 11 15 1012.4 - 0.0 - - - - - - -
21/11:00am 31.8 N 9 18 1012.8 - 0.0 - - - - - - -
21/10:30am 31.7 N 8 15 1013.1 - 0.0 - - - - - - -
21/10:00am 30.2 N 8 14 1013.5 - 0.0 - - - - - - -
21/09:30am 29.0 N 8 13 1013.7 - 0.0 - - - - - - -
21/09:00am 27.6 N 6 9 1014.1 - 0.0 - - - - - - -
21/08:30am 26.5 N 6 11 1014.1 - 0.0 - - - - - - -
21/08:00am 24.9 N 8 13 1013.9 - 0.0 - - - - - - -
21/07:30am 23.4 N 6 9 1013.8 - 0.0 - - - - - - -
21/07:00am 21.8 N 5 8 1013.9 - 0.0 - - - - - - -
21/06:30am 20.7 N 5 6 1013.7 - 0.0 - - - - - - -
21/06:00am 20.5 N 5 7 1013.4 - 0.0 - - - - - - -
21/05:30am 20.5 N 6 8 1013.2 - 0.0 - - - - - - -
21/05:00am 20.4 N 5 6 1013.1 - 0.0 - - - - - - -
21/04:30am 20.4 N 5 6 1013.0 - 0.0 - - - - - - -

Other Formats:

Comma delimited format used in spreadsheet applications
http://www.bom.gov.au/fwo/IDN60701/IDN60701.94598.axf

JavaScript Object Notation format (JSON) in row-major order
http://www.bom.gov.au/fwo/IDN60701/IDN60701.94598.json